This is the latest recevied weather packets stored in our database for station/object KC1BRV. If no packets are shown the sender has not sent any weather packets the latest 10 day(s).
| Time | Temp. | Humidity | Pressure | Rain* | Wind** | Luminosity | Snow |
|---|---|---|---|---|---|---|---|
| 1778008373 | 21.67° C | 52% | 1010.5 hPa | 0 mm | - | 572 W/m² | - |
| 1778008068 | 22.22° C | 51% | 1010.5 hPa | 0 mm | - | 584 W/m² | - |
| 1778007763 | 22.22° C | 51% | 1010.6 hPa | 0 mm | - | 598 W/m² | - |
| 1778007460 | 22.22° C | 51% | 1010.8 hPa | 0 mm | - | 604 W/m² | - |
| 1778007157 | 22.78° C | 50% | 1010.5 hPa | 0 mm | - | 613 W/m² | - |
| 1778006853 | 22.78° C | 51% | 1010.4 hPa | 0 mm | - | 624 W/m² | - |
| 1778006551 | 23.33° C | 49% | 1010.6 hPa | 0 mm | - | 634 W/m² | - |
| 1778006247 | 23.33° C | 50% | 1010.6 hPa | 0 mm | - | 640 W/m² | - |
| 1778005944 | 23.89° C | 49% | 1010.8 hPa | 0 mm | - | 647 W/m² | - |
| 1778005641 | 23.33° C | 48% | 1010.9 hPa | 0 mm | - | 655 W/m² | - |
| 1778005338 | 23.89° C | 47% | 1010.7 hPa | 0 mm | - | 666 W/m² | - |
| 1778005034 | 23.89° C | 48% | 1010.7 hPa | 0 mm | - | 673 W/m² | - |
| 1778004732 | 23.89° C | 47% | 1010.6 hPa | 0 mm | - | 681 W/m² | - |
| 1778004428 | 23.89° C | 46% | 1010.8 hPa | 0 mm | - | 689 W/m² | - |
| 1778004125 | 23.89° C | 47% | 1010.8 hPa | 0 mm | - | 698 W/m² | - |
| 1778003821 | 23.89° C | 47% | 1010.7 hPa | 0 mm | - | 701 W/m² | - |
| 1778003517 | 24.44° C | 46% | 1010.9 hPa | 0 mm | - | 709 W/m² | - |
| 1778003214 | 23.89° C | 46% | 1010.9 hPa | 0 mm | - | 716 W/m² | - |
| 1778002910 | 23.89° C | 46% | 1011 hPa | 0 mm | - | 719 W/m² | - |
| 1778002607 | 23.89° C | 47% | 1011 hPa | 0 mm | - | 726 W/m² | - |
| 1778002304 | 23.33° C | 48% | 1011.2 hPa | 0 mm | - | 728 W/m² | - |
| 1778002001 | 23.33° C | 50% | 1011.3 hPa | 0 mm | - | 731 W/m² | - |
| 1778001698 | 23.89° C | 47% | 1011.5 hPa | 0 mm | - | 731 W/m² | - |
| 1778001397 | 23.33° C | 49% | 1011.6 hPa | 0 mm | - | 734 W/m² | - |
| 1778001095 | 23.89° C | 47% | 1011.4 hPa | 0 mm | - | 740 W/m² | - |
* Rain latest hour (hover to see other rain measurements)
** Current wind speed in m/s (hover to see current wind gust speed)